Bookmark and Share
Track history (hours):
 

Stena Atlantica

Last reported at 2014-Apr-24 01:24 UTC. Time now 2014-Apr-24 03:55 UTC.
Position N 54°35' E 011°15'.

Length 245 m; draft 14.1 m.

Type: Tanker. MMSI: 319161000.

NotesDate/timePositionNaut miles runAvg speedWind from/ knotsBaromVisibWave heightAir tempDewpointWater temp
2014-Apr-24 01:24N 54°35' E 011°15'1113.0
2014-Apr-24 00:34N 54°30' E 011°32'1312.6
2014-Apr-23 23:34N 54°26' E 011°53'1110.9
2014-Apr-23 22:34N 54°27' E 012°11'1010.0
2014-Apr-23 21:33N 54°36' E 012°18'1110.6
2014-Apr-23 20:34N 54°42' E 012°33'1010.4
2014-Apr-23 19:34N 54°47' E 012°49'1211.5
2014-Apr-23 18:32N 54°52' E 013°07'1212.4
2014-Apr-23 17:34N 54°56' E 013°27'1211.9
2014-Apr-23 16:34N 55°00' E 013°47'1211.6
2014-Apr-23 15:33N 55°05' E 014°05'1111.4
2014-Apr-23 14:33N 55°10' E 014°23'1211.5
2014-Apr-23 13:33N 55°17' E 014°39'1010.3
2014-Apr-23 12:34N 55°21' E 014°55'1212.0
2014-Apr-23 11:33N 55°25' E 015°15'1311.7
2014-Apr-23 10:29N 55°29' E 015°36'1111.9
2014-Apr-23 09:34N 55°32' E 015°55'1412.0
2014-Apr-23 08:22N 55°37' E 016°19'1311.7
2014-Apr-23 07:15N 55°43' E 016°39'812.1
2014-Apr-23 06:33N 55°49' E 016°50'1211.6
2014-Apr-23 05:33N 55°53' E 017°09'1211.9
2014-Apr-23 04:34N 55°56' E 017°30'1212.0
2014-Apr-23 03:33N 56°02' E 017°49'1212.0
2014-Apr-23 02:34N 56°08' E 018°07'1212.0
2014-Apr-23 01:34N 56°15' E 018°25'1711.8
2014-Apr-23 00:09N 56°25' E 018°49'22812.3
2014-Apr-22 05:33N 59°33' E 022°51'1212.3
2014-Apr-22 04:33N 59°37' E 023°14'1212.2
2014-Apr-22 03:33N 59°40' E 023°38'1212.3
2014-Apr-22 02:33N 59°44' E 024°01'1211.9
2014-Apr-22 01:33N 59°47' E 024°24'1211.9
2014-Apr-22 00:33N 59°49' E 024°47'4812.0
2014-Apr-21 20:33N 59°59' E 026°20'1211.7
2014-Apr-21 19:33N 60°01' E 026°44'  
2014-Apr-16 09:15N 59°58' E 027°00'913.2
2014-Apr-16 08:33N 59°59' E 026°42'1312.9
2014-Apr-16 07:34N 59°56' E 026°17'3913.1
2014-Apr-16 04:33N 59°47' E 025°01'1312.8
2014-Apr-16 03:33N 59°44' E 024°36'1312.7
2014-Apr-16 02:34N 59°41' E 024°12'1312.7
2014-Apr-16 01:33N 59°37' E 023°48'1312.8
2014-Apr-16 00:33N 59°33' E 023°24'1312.7
2014-Apr-15 23:33N 59°29' E 022°60'29111.2
2014-Apr-14 21:34N 56°01' E 016°40'1312.6
2014-Apr-14 20:34N 55°54' E 016°21'1312.8
2014-Apr-14 19:34N 55°46' E 016°03'3912.9
2014-Apr-14 16:34N 55°26' E 015°05'1312.7
2014-Apr-14 15:34N 55°20' E 014°45'1111.4
2014-Apr-14 14:34N 55°12' E 014°30'1313.1
2014-Apr-14 13:33N 55°04' E 014°12'2612.9
2014-Apr-14 11:33N 54°54' E 013°31'1312.9
2014-Apr-14 10:33N 54°50' E 013°10'1313.0
2014-Apr-14 09:34N 54°45' E 012°49'1313.2
2014-Apr-14 08:34N 54°39' E 012°28'1413.5
2014-Apr-14 07:34N 54°29' E 012°14'1312.6
2014-Apr-14 06:34N 54°24' E 011°54'1413.8
2014-Apr-14 05:33N 54°29' E 011°31'  

Dump ship's entire track history

sailing weather and tide predictions

Stena Atlantica — ZCPR7 — position and weather